Time;durP1;ratioP1;P1;durP2;ratioP2;P2;SDS_P1;SDS_P2;PMS_P1;PMS_P2;Temp;Humidity;BMP_temperature;BMP_pressure;BME280_temperature;BME280_humidity;BME280_pressure;Samples;Min_cycle;Max_cycle;Signal;HPM_P1;HPM_P2
2023/08/12 00:02:12;;;;;;;0.20;0.20;;;;;;;;;;5106868;28;20162;-55
2023/08/12 00:04:38;;;;;;;0.20;0.20;;;;;;;;;;5107201;28;20043;-52
2023/08/12 00:07:03;;;;;;;0.10;0.10;;;;;;;;;;5107379;28;20048;-55
2023/08/12 00:09:29;;;;;;;0.20;0.20;;;;;;;;;;5107011;28;20428;-57
2023/08/12 00:11:54;;;;;;;0.20;0.20;;;;;;;;;;5106376;28;20055;-55
2023/08/12 00:14:20;;;;;;;0.20;0.20;;;;;;;;;;5107347;28;20044;-55
2023/08/12 00:16:45;;;;;;;0.20;0.20;;;;;;;;;;5107756;28;20610;-56
2023/08/12 00:19:11;;;;;;;0.20;0.20;;;;;;;;;;5105915;28;20043;-55
2023/08/12 00:21:38;;;;;;;0.17;0.17;;;;;;;;;;5107878;28;20130;-55
2023/08/12 00:24:03;;;;;;;0.10;0.10;;;;;;;;;;5107162;28;20446;-56
2023/08/12 00:26:29;;;;;;;0.10;0.10;;;;;;;;;;5107547;28;20070;-56
2023/08/12 00:28:54;;;;;;;0.20;0.20;;;;;;;;;;5107294;28;20048;-54
2023/08/12 00:31:20;;;;;;;0.20;0.20;;;;;;;;;;5106782;28;20044;-55
2023/08/12 00:33:45;;;;;;;0.25;0.25;;;;;;;;;;5106763;28;20097;-57
2023/08/12 00:36:11;;;;;;;0.20;0.20;;;;;;;;;;5110501;28;20094;-55
2023/08/12 00:38:36;;;;;;;0.10;0.10;;;;;;;;;;5109451;28;20047;-52
2023/08/12 00:41:03;;;;;;;0.20;0.20;;;;;;;;;;5109881;28;20055;-57
2023/08/12 00:43:28;;;;;;;0.13;0.13;;;;;;;;;;5111034;28;20047;-54
2023/08/12 00:45:54;;;;;;;0.10;0.10;;;;;;;;;;5111113;28;20054;-57
2023/08/12 00:48:19;;;;;;;0.15;0.15;;;;;;;;;;5110256;28;20094;-54
2023/08/12 00:50:45;;;;;;;0.10;0.10;;;;;;;;;;5109559;28;20048;-56
2023/08/12 00:53:11;;;;;;;0.10;0.10;;;;;;;;;;5110322;28;20064;-57
2023/08/12 00:55:37;;;;;;;0.20;0.20;;;;;;;;;;5110007;28;20110;-56
2023/08/12 00:58:03;;;;;;;0.10;0.10;;;;;;;;;;5110508;28;20487;-54
2023/08/12 01:00:28;;;;;;;0.20;0.20;;;;;;;;;;5104604;28;20480;-56
2023/08/12 01:02:56;;;;;;;0.20;0.20;;;;;;;;;;5096703;28;20320;-55
2023/08/12 01:05:22;;;;;;;0.10;0.10;;;;;;;;;;5110193;28;20054;-54
2023/08/12 01:07:48;;;;;;;0.10;0.10;;;;;;;;;;5110289;28;20134;-56
2023/08/12 01:10:15;;;;;;;0.10;0.10;;;;;;;;;;5107713;28;20054;-56
2023/08/12 01:13:01;;;;;;;0.10;0.10;;;;;;;;;;5109732;28;20104;-57
2023/08/12 01:15:26;;;;;;;0.20;0.20;;;;;;;;;;5095159;28;20498;-55
2023/08/12 01:17:53;;;;;;;0.10;0.10;;;;;;;;;;5109491;28;20052;-54
2023/08/12 01:20:24;;;;;;;0.20;0.20;;;;;;;;;;5109919;28;20054;-56
2023/08/12 01:22:52;;;;;;;0.10;0.10;;;;;;;;;;5109790;28;20075;-56
2023/08/12 01:25:18;;;;;;;;;;;;;;;;;;5110126;28;20385;-53
2023/08/12 01:27:43;;;;;;;0.13;0.13;;;;;;;;;;5110091;28;20456;-55
2023/08/12 01:30:10;;;;;;;0.10;0.10;;;;;;;;;;5109682;28;20480;-56
2023/08/12 01:32:41;;;;;;;0.20;0.20;;;;;;;;;;5107802;28;20059;-57
2023/08/12 01:35:14;;;;;;;0.20;0.20;;;;;;;;;;5109023;28;20054;-57
2023/08/12 01:37:40;;;;;;;0.20;0.20;;;;;;;;;;5109034;28;20432;-57
2023/08/12 01:40:06;;;;;;;0.10;0.10;;;;;;;;;;5107455;28;20495;-57
2023/08/12 01:42:32;;;;;;;0.20;0.20;;;;;;;;;;5108806;28;20100;-56
2023/08/12 01:44:59;;;;;;;0.40;0.30;;;;;;;;;;5108830;28;20056;-52
2023/08/12 01:47:24;;;;;;;0.10;0.10;;;;;;;;;;5109906;28;20059;-54
2023/08/12 01:49:50;;;;;;;0.20;0.20;;;;;;;;;;5109731;28;20052;-55
2023/08/12 01:52:16;;;;;;;0.10;0.10;;;;;;;;;;5109437;28;20111;-54
2023/08/12 01:54:41;;;;;;;0.20;0.20;;;;;;;;;;5110200;28;20383;-57
2023/08/12 01:57:08;;;;;;;0.20;0.20;;;;;;;;;;5109988;28;20043;-57
2023/08/12 01:59:34;;;;;;;0.10;0.10;;;;;;;;;;5109632;28;20047;-55
2023/08/12 02:01:59;;;;;;;0.10;0.10;;;;;;;;;;5109433;28;20055;-57
2023/08/12 02:04:25;;;;;;;0.22;0.20;;;;;;;;;;5109018;28;20163;-54
2023/08/12 02:06:51;;;;;;;0.10;0.10;;;;;;;;;;5108175;28;20040;-57
2023/08/12 02:09:17;;;;;;;0.10;0.10;;;;;;;;;;5109896;28;20058;-57
2023/08/12 02:11:42;;;;;;;0.20;0.20;;;;;;;;;;5108464;28;20081;-54
2023/08/12 02:14:08;;;;;;;0.10;0.10;;;;;;;;;;5108858;28;20058;-55
2023/08/12 02:16:33;;;;;;;0.17;0.17;;;;;;;;;;5109571;28;20222;-57
2023/08/12 02:18:59;;;;;;;0.20;0.20;;;;;;;;;;5108420;28;20454;-54
2023/08/12 02:21:24;;;;;;;0.10;0.10;;;;;;;;;;5096165;28;20059;-57
2023/08/12 02:23:50;;;;;;;0.10;0.10;;;;;;;;;;5095535;28;20108;-54
2023/08/12 02:26:15;;;;;;;0.20;0.20;;;;;;;;;;5109422;28;20150;-54
2023/08/12 02:28:41;;;;;;;0.10;0.10;;;;;;;;;;5108808;28;20077;-53
2023/08/12 02:31:09;;;;;;;0.13;0.13;;;;;;;;;;5109380;28;20044;-55
2023/08/12 02:33:35;;;;;;;0.20;0.20;;;;;;;;;;5109033;28;20430;-53
2023/08/12 02:36:00;;;;;;;0.10;0.10;;;;;;;;;;5109730;28;20116;-47
2023/08/12 02:38:26;;;;;;;0.20;0.20;;;;;;;;;;5108796;28;20460;-50
2023/08/12 02:40:51;;;;;;;0.20;0.20;;;;;;;;;;5107289;28;20520;-46
2023/08/12 02:43:17;;;;;;;0.10;0.10;;;;;;;;;;5108181;28;20065;-48
2023/08/12 02:45:43;;;;;;;0.10;0.10;;;;;;;;;;5109302;28;20085;-45
2023/08/12 02:48:10;;;;;;;0.10;0.10;;;;;;;;;;5108997;28;20063;-46
2023/08/12 02:50:36;;;;;;;0.10;0.10;;;;;;;;;;5102266;28;20519;-47
2023/08/12 02:53:02;;;;;;;0.10;0.10;;;;;;;;;;5088360;28;20044;-50
2023/08/12 02:55:28;;;;;;;0.10;0.10;;;;;;;;;;5088605;28;20051;-50
2023/08/12 02:57:53;;;;;;;0.10;0.10;;;;;;;;;;5088160;28;20050;-51
2023/08/12 03:00:19;;;;;;;0.10;0.10;;;;;;;;;;5090314;28;20044;-49
2023/08/12 03:02:44;;;;;;;0.20;0.20;;;;;;;;;;5108578;28;20389;-51
2023/08/12 03:05:10;;;;;;;0.10;0.10;;;;;;;;;;5108286;28;20068;-50
2023/08/12 03:07:36;;;;;;;0.10;0.10;;;;;;;;;;5108772;28;20058;-49
2023/08/12 03:10:01;;;;;;;0.10;0.10;;;;;;;;;;5106173;28;20445;-52
2023/08/12 03:12:27;;;;;;;0.10;0.10;;;;;;;;;;5088142;28;20147;-49
2023/08/12 03:14:52;;;;;;;0.10;0.10;;;;;;;;;;5103469;28;20052;-50
2023/08/12 03:17:18;;;;;;;0.20;0.20;;;;;;;;;;5108288;27;20039;-50
2023/08/12 03:19:43;;;;;;;0.10;0.10;;;;;;;;;;5121748;28;20048;-49
2023/08/12 03:22:09;;;;;;;0.10;0.10;;;;;;;;;;5107904;28;20051;-50
2023/08/12 03:24:34;;;;;;;0.10;0.10;;;;;;;;;;5108306;28;20052;-51
2023/08/12 03:27:00;;;;;;;0.10;0.10;;;;;;;;;;5107976;28;20051;-50
2023/08/12 03:29:25;;;;;;;0.10;0.10;;;;;;;;;;5108103;28;20047;-49
2023/08/12 03:31:51;;;;;;;0.10;0.10;;;;;;;;;;5108036;28;20052;-48
2023/08/12 03:34:16;;;;;;;0.20;0.20;;;;;;;;;;5107614;28;20043;-50
2023/08/12 03:36:42;;;;;;;0.10;0.10;;;;;;;;;;5108112;28;20048;-47
2023/08/12 03:39:07;;;;;;;0.10;0.10;;;;;;;;;;5107706;28;20453;-49
2023/08/12 03:41:33;;;;;;;0.10;0.10;;;;;;;;;;5099279;28;20044;-50
2023/08/12 03:43:59;;;;;;;0.10;0.10;;;;;;;;;;5107042;28;20050;-51
2023/08/12 03:46:24;;;;;;;0.20;0.20;;;;;;;;;;5106515;28;20067;-49
2023/08/12 03:48:50;;;;;;;0.10;0.10;;;;;;;;;;5107987;28;20047;-50
2023/08/12 03:51:15;;;;;;;0.10;0.10;;;;;;;;;;5095010;28;20056;-48
2023/08/12 03:53:41;;;;;;;0.17;0.17;;;;;;;;;;5087419;28;21394;-49
2023/08/12 03:56:06;;;;;;;0.10;0.10;;;;;;;;;;5087602;28;20306;-51
2023/08/12 03:58:32;;;;;;;0.20;0.20;;;;;;;;;;5087333;28;20506;-47
2023/08/12 04:00:57;;;;;;;0.10;0.10;;;;;;;;;;5087571;28;20079;-47
2023/08/12 04:03:24;;;;;;;0.10;0.10;;;;;;;;;;5101912;28;20130;-49
2023/08/12 04:05:52;;;;;;;0.10;0.10;;;;;;;;;;5107191;28;20492;-47
2023/08/12 04:08:18;;;;;;;0.10;0.10;;;;;;;;;;5106890;28;20480;-49
2023/08/12 04:10:44;;;;;;;0.10;0.10;;;;;;;;;;5107629;28;20507;-47
2023/08/12 04:13:10;;;;;;;0.10;0.10;;;;;;;;;;5107365;28;20047;-49
2023/08/12 04:15:35;;;;;;;0.10;0.10;;;;;;;;;;5107191;28;20063;-51
2023/08/12 04:18:01;;;;;;;0.10;0.10;;;;;;;;;;5112364;28;20050;-48
2023/08/12 04:20:27;;;;;;;0.10;0.10;;;;;;;;;;5116149;28;20052;-49
2023/08/12 04:22:52;;;;;;;0.20;0.20;;;;;;;;;;5106727;28;20047;-50
2023/08/12 04:25:18;;;;;;;0.10;0.10;;;;;;;;;;5106502;28;20051;-47
2023/08/12 04:27:43;;;;;;;0.10;0.10;;;;;;;;;;5106340;28;20048;-50
2023/08/12 04:30:09;;;;;;;0.20;0.20;;;;;;;;;;5105331;28;20056;-49
2023/08/12 04:32:35;;;;;;;0.10;0.10;;;;;;;;;;5106831;28;20423;-51
2023/08/12 04:35:00;;;;;;;0.10;0.10;;;;;;;;;;5106901;28;20472;-48
2023/08/12 04:37:26;;;;;;;0.20;0.20;;;;;;;;;;5107023;28;20097;-48
2023/08/12 04:39:51;;;;;;;0.28;0.28;;;;;;;;;;5106937;28;20212;-47
2023/08/12 04:42:17;;;;;;;0.10;0.10;;;;;;;;;;5105964;28;20635;-46
2023/08/12 04:44:42;;;;;;;0.20;0.20;;;;;;;;;;5106497;28;20058;-48
2023/08/12 04:47:08;;;;;;;0.10;0.10;;;;;;;;;;5106119;28;20147;-50
2023/08/12 04:49:33;;;;;;;0.10;0.10;;;;;;;;;;5107002;28;20086;-49
2023/08/12 04:51:59;;;;;;;0.20;0.20;;;;;;;;;;5088464;28;20397;-50
2023/08/12 04:54:24;;;;;;;0.20;0.20;;;;;;;;;;5086420;28;20052;-50
2023/08/12 04:56:50;;;;;;;0.10;0.10;;;;;;;;;;5086134;28;20349;-50
2023/08/12 04:59:15;;;;;;;0.20;0.20;;;;;;;;;;5086422;28;20117;-49
2023/08/12 05:01:41;;;;;;;0.10;0.10;;;;;;;;;;5086322;28;20044;-51
2023/08/12 05:04:26;;;;;;;0.10;0.10;;;;;;;;;;5080060;28;20516;-48
2023/08/12 05:06:52;;;;;;;0.10;0.10;;;;;;;;;;5106887;28;20078;-51
2023/08/12 05:09:17;;;;;;;0.10;0.10;;;;;;;;;;5106856;28;20052;-50
2023/08/12 05:11:43;;;;;;;0.20;0.20;;;;;;;;;;5105473;28;20097;-50
2023/08/12 05:14:09;;;;;;;0.20;0.20;;;;;;;;;;5106358;28;20047;-46
2023/08/12 05:16:34;;;;;;;0.20;0.20;;;;;;;;;;5106464;27;20047;-51
2023/08/12 05:19:00;;;;;;;0.20;0.20;;;;;;;;;;5106197;28;20055;-47
2023/08/12 05:21:26;;;;;;;0.20;0.20;;;;;;;;;;5108535;28;20132;-51
2023/08/12 05:23:52;;;;;;;0.17;0.17;;;;;;;;;;5109206;28;20051;-46
2023/08/12 05:26:17;;;;;;;0.10;0.10;;;;;;;;;;5109915;28;20488;-52
2023/08/12 05:28:43;;;;;;;0.10;0.10;;;;;;;;;;5110067;28;20110;-47
2023/08/12 05:31:08;;;;;;;0.10;0.10;;;;;;;;;;5107439;28;20054;-47
2023/08/12 05:33:34;;;;;;;0.20;0.20;;;;;;;;;;5108480;28;20146;-47
2023/08/12 05:36:00;;;;;;;0.20;0.20;;;;;;;;;;5109374;28;20100;-50
2023/08/12 05:38:25;;;;;;;0.60;0.47;;;;;;;;;;5109131;28;20070;-48
2023/08/12 05:40:51;;;;;;;0.20;0.20;;;;;;;;;;5108591;28;20495;-45
2023/08/12 05:43:16;;;;;;;0.20;0.20;;;;;;;;;;5108736;28;20072;-51
2023/08/12 05:45:42;;;;;;;0.10;0.10;;;;;;;;;;5108304;28;20051;-48
2023/08/12 05:48:07;;;;;;;0.20;0.20;;;;;;;;;;5107877;28;20513;-47
2023/08/12 05:50:33;;;;;;;0.10;0.10;;;;;;;;;;5102625;28;20053;-47
2023/08/12 05:52:59;;;;;;;0.10;0.10;;;;;;;;;;5088769;28;20056;-49
2023/08/12 05:55:24;;;;;;;0.10;0.10;;;;;;;;;;5088854;28;20054;-49
2023/08/12 05:57:50;;;;;;;0.17;0.17;;;;;;;;;;5088024;28;20048;-50
2023/08/12 06:00:15;;;;;;;0.10;0.10;;;;;;;;;;5088429;28;20063;-45
2023/08/12 06:02:41;;;;;;;0.20;0.20;;;;;;;;;;5087897;28;20043;-49
2023/08/12 06:05:07;;;;;;;0.10;0.10;;;;;;;;;;5088166;28;20466;-47
2023/08/12 06:07:32;;;;;;;0.10;0.10;;;;;;;;;;5107701;28;20507;-50
2023/08/12 06:09:58;;;;;;;0.10;0.10;;;;;;;;;;5108270;28;20043;-49
2023/08/12 06:12:23;;;;;;;0.10;0.10;;;;;;;;;;5108785;28;20093;-51
2023/08/12 06:14:49;;;;;;;0.10;0.10;;;;;;;;;;5105843;28;20047;-51
2023/08/12 06:17:14;;;;;;;0.10;0.10;;;;;;;;;;5118504;28;20043;-49
2023/08/12 06:19:40;;;;;;;0.10;0.10;;;;;;;;;;5113255;28;20054;-50
2023/08/12 06:22:05;;;;;;;0.10;0.10;;;;;;;;;;5108646;28;20131;-49
2023/08/12 06:24:31;;;;;;;0.10;0.10;;;;;;;;;;5108769;28;20404;-52
2023/08/12 06:26:57;;;;;;;0.10;0.10;;;;;;;;;;5108190;28;20543;-50
2023/08/12 06:29:22;;;;;;;0.10;0.10;;;;;;;;;;5109143;28;20055;-49
2023/08/12 06:31:48;;;;;;;0.10;0.10;;;;;;;;;;5105369;28;20101;-47
2023/08/12 06:34:13;;;;;;;0.10;0.10;;;;;;;;;;5107958;28;20048;-49
2023/08/12 06:36:39;;;;;;;0.10;0.10;;;;;;;;;;5106657;28;20379;-50
2023/08/12 06:39:04;;;;;;;0.10;0.10;;;;;;;;;;5107251;28;20052;-47
2023/08/12 06:41:30;;;;;;;0.20;0.20;;;;;;;;;;5107010;28;20047;-46
2023/08/12 06:43:56;;;;;;;0.15;0.15;;;;;;;;;;5108248;28;20055;-46
2023/08/12 06:46:21;;;;;;;0.10;0.10;;;;;;;;;;5107895;28;20400;-46
2023/08/12 06:48:47;;;;;;;0.10;0.10;;;;;;;;;;5107704;28;20048;-48
2023/08/12 06:51:12;;;;;;;0.20;0.20;;;;;;;;;;5107146;28;20062;-50
2023/08/12 06:53:38;;;;;;;0.10;0.10;;;;;;;;;;5108937;28;20046;-50
2023/08/12 06:56:04;;;;;;;0.10;0.10;;;;;;;;;;5108276;28;20047;-49
2023/08/12 06:58:30;;;;;;;0.20;0.20;;;;;;;;;;5108476;28;20116;-49
2023/08/12 07:00:56;;;;;;;0.13;0.13;;;;;;;;;;5108153;28;20059;-47
2023/08/12 07:03:22;;;;;;;0.10;0.10;;;;;;;;;;5108063;28;20044;-49
2023/08/12 07:05:47;;;;;;;0.10;0.10;;;;;;;;;;5108214;28;20054;-50
2023/08/12 07:08:13;;;;;;;0.20;0.20;;;;;;;;;;5107903;28;20044;-50
2023/08/12 07:10:39;;;;;;;0.15;0.15;;;;;;;;;;5108284;28;20084;-47
2023/08/12 07:13:04;;;;;;;0.20;0.20;;;;;;;;;;5108326;28;20047;-50
2023/08/12 07:15:30;;;;;;;0.10;0.10;;;;;;;;;;5107542;28;20054;-51
2023/08/12 07:17:55;;;;;;;0.10;0.10;;;;;;;;;;5122498;28;20051;-47
2023/08/12 07:20:21;;;;;;;0.10;0.10;;;;;;;;;;5120210;28;20416;-47
2023/08/12 07:22:46;;;;;;;0.20;0.20;;;;;;;;;;5107988;28;20339;-48
2023/08/12 07:25:12;;;;;;;0.10;0.10;;;;;;;;;;5108649;28;20122;-46
2023/08/12 07:27:38;;;;;;;0.10;0.10;;;;;;;;;;5107105;28;20054;-49
2023/08/12 07:30:03;;;;;;;0.10;0.10;;;;;;;;;;5107977;28;20542;-52
2023/08/12 07:32:29;;;;;;;0.10;0.10;;;;;;;;;;5108195;28;20538;-51
2023/08/12 07:34:54;;;;;;;0.10;0.10;;;;;;;;;;5107527;28;20456;-51
2023/08/12 07:37:20;;;;;;;0.20;0.20;;;;;;;;;;5107122;28;20499;-51
2023/08/12 07:39:45;;;;;;;0.10;0.10;;;;;;;;;;5107522;28;20424;-47
2023/08/12 07:42:12;;;;;;;0.10;0.10;;;;;;;;;;5106676;28;20058;-49
2023/08/12 07:44:37;;;;;;;0.20;0.20;;;;;;;;;;5107153;28;20115;-49
2023/08/12 07:47:04;;;;;;;0.10;0.10;;;;;;;;;;5107246;28;20396;-49
2023/08/12 07:49:29;;;;;;;0.10;0.10;;;;;;;;;;5107576;28;20209;-51
2023/08/12 07:51:55;;;;;;;0.10;0.10;;;;;;;;;;5106491;28;20070;-47
2023/08/12 07:54:20;;;;;;;0.10;0.10;;;;;;;;;;5107553;28;20130;-48
2023/08/12 07:56:46;;;;;;;0.10;0.10;;;;;;;;;;5106560;28;20047;-50
2023/08/12 07:59:11;;;;;;;0.10;0.10;;;;;;;;;;5106930;28;20101;-50
2023/08/12 08:01:37;;;;;;;0.20;0.20;;;;;;;;;;5106757;28;20088;-46
2023/08/12 08:04:04;;;;;;;0.20;0.20;;;;;;;;;;5107468;28;20075;-45
2023/08/12 08:06:30;;;;;;;0.10;0.10;;;;;;;;;;5106950;28;20415;-45
2023/08/12 08:08:56;;;;;;;0.20;0.20;;;;;;;;;;5107187;28;20384;-46
2023/08/12 08:11:21;;;;;;;0.10;0.10;;;;;;;;;;5106067;28;20082;-49
2023/08/12 08:13:47;;;;;;;0.10;0.10;;;;;;;;;;5105435;28;20052;-45
2023/08/12 08:16:12;;;;;;;0.10;0.10;;;;;;;;;;5103989;28;20055;-48
2023/08/12 08:18:38;;;;;;;0.10;0.10;;;;;;;;;;5128098;28;20047;-49
2023/08/12 08:21:03;;;;;;;0.10;0.10;;;;;;;;;;5108950;28;20101;-49
2023/08/12 08:23:31;;;;;;;0.10;0.10;;;;;;;;;;5107374;28;20484;-50
2023/08/12 08:25:57;;;;;;;0.10;0.10;;;;;;;;;;5107475;28;20055;-48
2023/08/12 08:28:23;;;;;;;0.10;0.10;;;;;;;;;;5107341;28;20143;-46
2023/08/12 08:30:48;;;;;;;0.10;0.10;;;;;;;;;;5097504;28;20395;-47
2023/08/12 08:33:14;;;;;;;0.10;0.10;;;;;;;;;;5105786;28;20051;-47
2023/08/12 08:35:39;;;;;;;0.10;0.10;;;;;;;;;;5106358;28;20100;-47
2023/08/12 08:38:05;;;;;;;0.13;0.13;;;;;;;;;;5106503;28;20075;-46
2023/08/12 08:40:30;;;;;;;0.20;0.20;;;;;;;;;;5100138;28;20515;-47
2023/08/12 08:42:57;;;;;;;0.10;0.10;;;;;;;;;;5086579;28;20044;-47
2023/08/12 08:45:23;;;;;;;0.20;0.20;;;;;;;;;;5086803;28;20044;-48
2023/08/12 08:47:51;;;;;;;0.10;0.10;;;;;;;;;;5077530;28;20966;-49
2023/08/12 08:50:17;;;;;;;0.10;0.10;;;;;;;;;;5105613;28;20113;-48
2023/08/12 08:52:43;;;;;;;0.20;0.20;;;;;;;;;;5106750;28;20079;-46
2023/08/12 08:55:09;;;;;;;0.15;0.15;;;;;;;;;;5108577;28;20048;-46
2023/08/12 08:57:35;;;;;;;0.10;0.10;;;;;;;;;;5110222;28;20476;-45
2023/08/12 09:00:14;;;;;;;0.10;0.10;;;;;;;;;;5106409;28;20051;-45
2023/08/12 09:02:44;;;;;;;0.10;0.10;;;;;;;;;;5090255;28;20052;-47
2023/08/12 09:05:10;;;;;;;0.10;0.10;;;;;;;;;;5089258;28;20044;-48
2023/08/12 09:07:36;;;;;;;0.10;0.10;;;;;;;;;;5090017;28;20040;-48
2023/08/12 09:10:03;;;;;;;0.10;0.10;;;;;;;;;;5089098;28;20059;-45
2023/08/12 09:12:29;;;;;;;0.10;0.10;;;;;;;;;;5090068;28;20087;-46
2023/08/12 09:14:55;;;;;;;0.10;0.10;;;;;;;;;;5101355;28;20043;-48
2023/08/12 09:17:20;;;;;;;0.10;0.10;;;;;;;;;;5107319;28;20603;-48
2023/08/12 09:19:46;;;;;;;0.10;0.10;;;;;;;;;;5109992;28;20450;-46
2023/08/12 09:22:11;;;;;;;0.20;0.20;;;;;;;;;;5108614;28;20047;-47
2023/08/12 09:24:37;;;;;;;0.10;0.10;;;;;;;;;;5108508;28;20112;-46
2023/08/12 09:27:04;;;;;;;0.10;0.10;;;;;;;;;;5110317;28;20055;-45
2023/08/12 09:29:31;;;;;;;0.10;0.10;;;;;;;;;;5108381;28;20604;-48
2023/08/12 09:32:12;;;;;;;0.10;0.10;;;;;;;;;;5108417;28;20055;-46
2023/08/12 09:34:46;;;;;;;0.15;0.15;;;;;;;;;;5109219;28;20055;-45
2023/08/12 09:37:12;;;;;;;0.20;0.20;;;;;;;;;;5108934;28;20076;-46
2023/08/12 09:39:38;;;;;;;0.10;0.10;;;;;;;;;;5108133;28;20047;-47
2023/08/12 09:42:04;;;;;;;0.10;0.10;;;;;;;;;;5109152;28;20465;-46
2023/08/12 09:44:30;;;;;;;0.10;0.10;;;;;;;;;;5109999;28;20047;-46
2023/08/12 09:46:57;;;;;;;0.20;0.20;;;;;;;;;;5109402;28;20048;-46
2023/08/12 09:49:23;;;;;;;0.10;0.10;;;;;;;;;;5109372;28;20051;-49
2023/08/12 09:51:48;;;;;;;0.20;0.20;;;;;;;;;;5093613;28;20048;-49
2023/08/12 09:54:14;;;;;;;0.10;0.10;;;;;;;;;;5108784;28;20044;-50
2023/08/12 09:56:42;;;;;;;0.10;0.10;;;;;;;;;;5109133;28;20109;-47
2023/08/12 09:59:08;;;;;;;0.10;0.10;;;;;;;;;;5109458;28;20480;-46
2023/08/12 10:01:34;;;;;;;0.10;0.10;;;;;;;;;;5094722;28;20078;-50
2023/08/12 10:04:01;;;;;;;0.10;0.10;;;;;;;;;;5089080;28;20052;-47
2023/08/12 10:06:27;;;;;;;0.10;0.10;;;;;;;;;;5088261;28;20167;-46
2023/08/12 10:08:53;;;;;;;0.10;0.10;;;;;;;;;;5088923;28;20455;-46
2023/08/12 10:11:18;;;;;;;0.10;0.10;;;;;;;;;;5088628;28;20469;-45
2023/08/12 10:13:44;;;;;;;0.10;0.10;;;;;;;;;;5093595;28;20048;-47
2023/08/12 10:16:10;;;;;;;0.10;0.10;;;;;;;;;;5129675;28;20047;-49
2023/08/12 10:18:36;;;;;;;0.10;0.10;;;;;;;;;;5108586;28;20043;-51
2023/08/12 10:21:02;;;;;;;0.10;0.10;;;;;;;;;;5098706;28;20145;-47
2023/08/12 10:23:27;;;;;;;0.20;0.20;;;;;;;;;;5088557;28;20055;-47
2023/08/12 10:25:53;;;;;;;0.10;0.10;;;;;;;;;;5091134;28;20048;-47
2023/08/12 10:28:19;;;;;;;0.10;0.10;;;;;;;;;;5108944;28;20089;-48
2023/08/12 10:30:45;;;;;;;0.10;0.10;;;;;;;;;;5108903;28;20052;-47
2023/08/12 10:33:10;;;;;;;0.10;0.10;;;;;;;;;;5109110;28;20048;-46
2023/08/12 10:35:44;;;;;;;0.10;0.10;;;;;;;;;;5108451;28;20039;-48
2023/08/12 10:38:11;;;;;;;0.15;0.15;;;;;;;;;;5108739;28;20159;-46
2023/08/12 10:40:36;;;;;;;0.10;0.10;;;;;;;;;;5101526;28;20051;-46
2023/08/12 10:43:02;;;;;;;0.17;0.17;;;;;;;;;;5107167;28;20044;-48
2023/08/12 10:45:40;;;;;;;0.17;0.17;;;;;;;;;;5107923;28;20485;-49
2023/08/12 10:50:44;;;;;;;0.10;0.10;;;;;;;;;;5187486;27;20060;-45
2023/08/12 10:53:20;;;;;;;2.80;0.20;;;;;;;;;;5165867;27;20057;-45
2023/08/12 10:55:48;;;;;;;0.10;0.10;;;;;;;;;;5165141;27;20278;-46
2023/08/12 10:58:24;;;;;;;0.10;0.10;;;;;;;;;;5165302;27;20085;-45
2023/08/12 11:00:52;;;;;;;0.10;0.10;;;;;;;;;;5170216;27;20053;-49
2023/08/12 11:03:18;;;;;;;0.10;0.10;;;;;;;;;;5166267;27;20050;-44
2023/08/12 11:05:44;;;;;;;0.10;0.10;;;;;;;;;;5165811;27;20046;-47
2023/08/12 11:08:12;;;;;;;0.10;0.10;;;;;;;;;;5166449;27;20050;-43
2023/08/12 11:10:38;;;;;;;0.10;0.10;;;;;;;;;;5165434;27;20504;-43
2023/08/12 11:13:04;;;;;;;0.10;0.10;;;;;;;;;;5160882;27;20062;-45
2023/08/12 11:15:32;;;;;;;0.10;0.10;;;;;;;;;;5162720;27;20099;-44
2023/08/12 11:17:58;;;;;;;0.10;0.10;;;;;;;;;;5166347;27;20055;-45
2023/08/12 11:20:24;;;;;;;0.10;0.10;;;;;;;;;;5161737;27;20107;-46
2023/08/12 11:22:50;;;;;;;0.10;0.10;;;;;;;;;;5145029;27;20051;-43
2023/08/12 11:25:15;;;;;;;0.10;0.10;;;;;;;;;;5145681;27;20313;-45
2023/08/12 11:27:43;;;;;;;0.10;0.10;;;;;;;;;;5144945;27;20054;-43
2023/08/12 11:30:10;;;;;;;0.10;0.10;;;;;;;;;;5147405;27;20150;-44
2023/08/12 11:32:37;;;;;;;0.10;0.10;;;;;;;;;;5166398;27;20043;-46
2023/08/12 11:35:06;;;;;;;0.10;0.10;;;;;;;;;;5149668;27;20400;-44
2023/08/12 11:37:32;;;;;;;;;;;;;;;;;;5144887;27;20074;-45
2023/08/12 11:39:57;;;;;;;0.10;0.10;;;;;;;;;;5144728;27;19930;-46
2023/08/12 11:42:23;;;;;;;0.10;0.10;;;;;;;;;;5146107;27;20085;-44
2023/08/12 11:44:48;;;;;;;0.10;0.10;;;;;;;;;;5144983;27;20129;-45
2023/08/12 11:47:14;;;;;;;0.15;0.15;;;;;;;;;;5145583;27;20043;-44
2023/08/12 11:49:39;;;;;;;0.10;0.10;;;;;;;;;;5145244;27;20054;-47
2023/08/12 11:52:05;;;;;;;0.10;0.10;;;;;;;;;;5164985;27;20039;-49
2023/08/12 11:54:31;;;;;;;0.10;0.10;;;;;;;;;;5146037;27;20057;-47
2023/08/12 11:56:57;;;;;;;0.20;0.20;;;;;;;;;;5143142;27;20494;-47
2023/08/12 11:59:23;;;;;;;0.10;0.10;;;;;;;;;;5142628;27;20457;-44
2023/08/12 12:01:49;;;;;;;0.10;0.10;;;;;;;;;;5149756;27;20047;-44
2023/08/12 12:04:15;;;;;;;0.10;0.10;;;;;;;;;;5151148;27;20534;-45
2023/08/12 12:06:41;;;;;;;0.15;0.15;;;;;;;;;;5151919;27;20057;-47
2023/08/12 12:09:09;;;;;;;0.10;0.10;;;;;;;;;;5151714;27;20042;-46
2023/08/12 12:11:36;;;;;;;0.20;0.20;;;;;;;;;;5148370;27;20483;-46
2023/08/12 12:14:03;;;;;;;0.20;0.20;;;;;;;;;;5135466;27;20039;-45
2023/08/12 12:16:44;;;;;;;0.17;0.17;;;;;;;;;;5151026;27;20054;-46
2023/08/12 12:19:15;;;;;;;0.10;0.10;;;;;;;;;;5150962;27;20074;-46
2023/08/12 12:21:41;;;;;;;0.10;0.10;;;;;;;;;;5149930;27;20070;-45
2023/08/12 12:24:08;;;;;;;0.10;0.10;;;;;;;;;;5130385;28;20487;-44
2023/08/12 12:26:34;;;;;;;0.10;0.10;;;;;;;;;;5131068;28;20051;-44
2023/08/12 12:29:00;;;;;;;0.20;0.20;;;;;;;;;;5130785;28;20058;-46
2023/08/12 12:31:25;;;;;;;0.10;0.10;;;;;;;;;;5131028;27;20479;-45
2023/08/12 12:33:51;;;;;;;0.10;0.10;;;;;;;;;;5130716;28;20142;-47
2023/08/12 12:36:16;;;;;;;0.10;0.10;;;;;;;;;;5130032;28;20074;-44
2023/08/12 12:38:43;;;;;;;0.20;0.20;;;;;;;;;;5129992;28;20043;-47
2023/08/12 12:41:08;;;;;;;0.20;0.20;;;;;;;;;;5138145;27;20070;-48
2023/08/12 12:43:34;;;;;;;0.10;0.10;;;;;;;;;;5130326;28;20541;-50
2023/08/12 12:45:59;;;;;;;0.10;0.10;;;;;;;;;;5129744;28;20043;-47
2023/08/12 12:48:25;;;;;;;0.20;0.20;;;;;;;;;;5130568;28;20075;-49
2023/08/12 12:50:51;;;;;;;0.20;0.20;;;;;;;;;;5138116;27;20403;-46
2023/08/12 12:53:16;;;;;;;0.20;0.20;;;;;;;;;;5151290;27;20575;-46
2023/08/12 12:55:42;;;;;;;0.13;0.13;;;;;;;;;;5136225;27;20420;-46
2023/08/12 12:58:09;;;;;;;0.20;0.20;;;;;;;;;;5129517;28;20511;-51
2023/08/12 13:00:37;;;;;;;0.10;0.10;;;;;;;;;;5129390;27;20404;-47
2023/08/12 13:03:03;;;;;;;0.10;0.10;;;;;;;;;;5130120;28;20507;-48
2023/08/12 13:05:28;;;;;;;0.10;0.10;;;;;;;;;;5129612;28;20146;-49
2023/08/12 13:07:54;;;;;;;0.10;0.10;;;;;;;;;;5129632;28;20093;-47
2023/08/12 13:10:20;;;;;;;0.10;0.10;;;;;;;;;;5133686;27;20054;-46
2023/08/12 13:12:45;;;;;;;0.10;0.10;;;;;;;;;;5137993;27;20206;-46
2023/08/12 13:15:11;;;;;;;0.10;0.10;;;;;;;;;;5129819;28;20119;-47
2023/08/12 13:17:37;;;;;;;0.10;0.10;;;;;;;;;;5130198;28;20047;-49
2023/08/12 13:20:03;;;;;;;0.10;0.10;;;;;;;;;;5130997;27;20075;-47
2023/08/12 13:22:29;;;;;;;0.10;0.10;;;;;;;;;;5150536;27;20051;-47
2023/08/12 13:24:54;;;;;;;0.10;0.10;;;;;;;;;;5136678;27;20407;-48
2023/08/12 13:27:20;;;;;;;0.10;0.10;;;;;;;;;;5130254;28;20047;-47
2023/08/12 13:29:46;;;;;;;0.10;0.10;;;;;;;;;;5129568;28;20161;-47
2023/08/12 13:32:11;;;;;;;0.10;0.10;;;;;;;;;;5139418;27;20099;-51
2023/08/12 13:34:37;;;;;;;0.10;0.10;;;;;;;;;;5129841;28;20051;-48
2023/08/12 13:37:03;;;;;;;0.10;0.10;;;;;;;;;;5129469;28;20523;-48
2023/08/12 13:39:28;;;;;;;0.10;0.10;;;;;;;;;;5128064;28;20411;-46
2023/08/12 13:41:54;;;;;;;0.20;0.20;;;;;;;;;;5129087;27;20047;-45
2023/08/12 13:44:20;;;;;;;0.10;0.10;;;;;;;;;;5128647;28;20062;-46
2023/08/12 13:46:45;;;;;;;0.10;0.10;;;;;;;;;;5128330;28;20043;-50
2023/08/12 13:49:11;;;;;;;0.10;0.10;;;;;;;;;;5128622;28;20053;-47
2023/08/12 13:51:37;;;;;;;0.10;0.10;;;;;;;;;;5143796;27;20050;-47
2023/08/12 13:54:03;;;;;;;0.10;0.10;;;;;;;;;;5149223;27;20500;-48
2023/08/12 13:56:28;;;;;;;0.20;0.20;;;;;;;;;;5143919;27;20068;-49
2023/08/12 13:58:57;;;;;;;0.10;0.10;;;;;;;;;;5127823;28;20047;-47
2023/08/12 14:01:22;;;;;;;0.10;0.10;;;;;;;;;;5131846;27;20088;-46
2023/08/12 14:03:48;;;;;;;0.20;0.20;;;;;;;;;;5128199;28;20081;-47
2023/08/12 14:06:14;;;;;;;0.10;0.10;;;;;;;;;;5128421;28;20178;-49
2023/08/12 14:08:39;;;;;;;0.10;0.10;;;;;;;;;;5128678;28;20039;-48
2023/08/12 14:11:05;;;;;;;0.17;0.17;;;;;;;;;;5127163;27;20050;-46
2023/08/12 14:13:30;;;;;;;0.10;0.10;;;;;;;;;;5142736;27;20091;-47
2023/08/12 14:15:56;;;;;;;0.20;0.20;;;;;;;;;;5147435;27;20173;-46
2023/08/12 14:18:21;;;;;;;0.20;0.20;;;;;;;;;;5128041;28;20439;-48
2023/08/12 14:20:47;;;;;;;0.20;0.20;;;;;;;;;;5135878;27;20055;-50
2023/08/12 14:23:12;;;;;;;0.20;0.20;;;;;;;;;;5148967;27;20049;-46
2023/08/12 14:25:38;;;;;;;0.20;0.20;;;;;;;;;;5144480;27;20143;-47
2023/08/12 14:28:04;;;;;;;0.15;0.15;;;;;;;;;;5128945;28;20077;-48
2023/08/12 14:30:29;;;;;;;0.20;0.20;;;;;;;;;;5134337;27;20402;-49
2023/08/12 14:32:55;;;;;;;0.10;0.10;;;;;;;;;;5148847;27;20047;-47
2023/08/12 14:35:21;;;;;;;0.20;0.20;;;;;;;;;;5128423;28;20051;-49
2023/08/12 14:37:46;;;;;;;0.10;0.10;;;;;;;;;;5129094;28;20051;-48
2023/08/12 14:40:12;;;;;;;0.20;0.20;;;;;;;;;;5129689;27;20054;-46